createdAt,value
2024-01-07T00:00:31.282Z,101635.88
2024-01-07T00:02:59.232Z,101622.16
2024-01-07T00:05:27.094Z,101628.47
2024-01-07T00:07:56.266Z,101633.28
2024-01-07T00:10:24.300Z,101625.09
2024-01-07T00:12:53.457Z,101643.66
2024-01-07T00:15:21.419Z,101644.72
2024-01-07T00:17:49.343Z,101641.03
2024-01-07T00:20:17.287Z,101640.19
2024-01-07T00:22:45.064Z,101645.06
2024-01-07T00:25:14.347Z,101653.41
2024-01-07T00:27:42.199Z,101652.22
2024-01-07T00:30:10.434Z,101637.34
2024-01-07T00:32:38.304Z,101644.03
2024-01-07T00:35:06.754Z,101650.69
2024-01-07T00:37:36.070Z,101656.03
2024-01-07T00:40:04.063Z,101647.69
2024-01-07T00:42:33.310Z,101652.69
2024-01-07T00:45:01.129Z,101649.00
2024-01-07T00:47:28.937Z,101659.53
2024-01-07T00:49:56.924Z,101663.03
2024-01-07T00:52:24.712Z,101667.88
2024-01-07T00:54:52.531Z,101670.00
2024-01-07T00:57:20.288Z,101666.38
2024-01-07T00:59:49.399Z,101676.69
2024-01-07T01:02:17.189Z,101676.19
2024-01-07T01:04:45.060Z,101685.19
2024-01-07T01:07:13.105Z,101675.34
2024-01-07T01:09:40.912Z,101683.22
2024-01-07T01:12:08.866Z,101682.06
2024-01-07T01:14:36.623Z,101691.22
2024-01-07T01:17:06.438Z,101692.06
2024-01-07T01:19:34.329Z,101686.91
2024-01-07T01:22:02.294Z,101692.59
2024-01-07T01:24:30.549Z,101696.78
2024-01-07T01:26:58.378Z,101694.94
2024-01-07T01:29:26.364Z,101700.81
2024-01-07T01:31:54.206Z,101707.84
2024-01-07T01:34:23.411Z,101700.00
2024-01-07T01:36:52.039Z,101708.00
2024-01-07T01:39:19.839Z,101708.31
2024-01-07T01:41:47.639Z,101707.00
2024-01-07T01:44:15.523Z,101704.16
2024-01-07T01:46:43.380Z,101708.81
2024-01-07T01:49:11.254Z,101707.66
2024-01-07T01:51:40.618Z,101711.16
2024-01-07T01:54:08.676Z,101719.66
2024-01-07T01:56:36.696Z,101725.53
2024-01-07T01:59:04.617Z,101722.84
2024-01-07T02:01:33.707Z,101726.53
2024-01-07T02:04:01.594Z,101730.22
2024-01-07T02:06:29.649Z,101720.19
2024-01-07T02:08:58.941Z,101735.03
2024-01-07T02:11:26.708Z,101733.53
2024-01-07T02:13:54.840Z,101735.03
2024-01-07T02:16:22.661Z,101740.88
2024-01-07T02:18:50.650Z,101742.56
2024-01-07T02:21:18.452Z,101746.19
2024-01-07T02:23:46.257Z,101744.38
2024-01-07T02:26:15.376Z,101753.53
2024-01-07T02:28:43.162Z,101749.88
2024-01-07T02:31:10.980Z,101741.88
2024-01-07T02:33:38.881Z,101751.72
2024-01-07T02:36:07.125Z,101751.53
2024-01-07T02:38:34.909Z,101755.03
2024-01-07T02:41:02.714Z,101759.41
2024-01-07T02:43:31.864Z,101754.38
2024-01-07T02:45:59.704Z,101755.41
2024-01-07T02:48:27.580Z,101762.22
2024-01-07T02:50:55.410Z,101750.88
2024-01-07T02:53:23.185Z,101756.56
2024-01-07T02:55:50.932Z,101766.88
2024-01-07T02:58:18.714Z,101762.38
2024-01-07T03:00:47.867Z,101759.38
2024-01-07T03:03:15.784Z,101768.56
2024-01-07T03:05:43.708Z,101773.72
2024-01-07T03:08:11.516Z,101769.38
2024-01-07T03:10:39.251Z,101774.38
2024-01-07T03:13:07.782Z,101775.06
2024-01-07T03:15:35.610Z,101789.22
2024-01-07T03:18:05.177Z,101790.06
2024-01-07T03:20:32.946Z,101791.22
2024-01-07T03:23:02.250Z,101793.38
2024-01-07T03:25:30.006Z,101794.72
2024-01-07T03:27:57.785Z,101796.06
2024-01-07T03:30:25.768Z,101793.06
2024-01-07T03:32:53.837Z,101788.72
2024-01-07T03:35:25.253Z,101796.56
2024-01-07T03:37:53.086Z,101789.22
2024-01-07T03:40:21.121Z,101789.22
2024-01-07T03:42:48.912Z,101793.22
2024-01-07T03:45:16.737Z,101778.22
2024-01-07T03:47:44.593Z,101794.38
2024-01-07T03:50:12.472Z,101791.38
2024-01-07T03:52:41.626Z,101799.38
2024-01-07T03:55:09.869Z,101797.56
2024-01-07T03:57:38.004Z,101804.06
2024-01-07T04:00:06.978Z,101808.56
2024-01-07T04:02:34.684Z,101812.72
2024-01-07T04:05:02.485Z,101814.22
2024-01-07T04:07:30.245Z,101816.88
2024-01-07T04:09:59.637Z,101814.53
2024-01-07T04:12:27.438Z,101816.53
2024-01-07T04:14:55.193Z,101817.72
2024-01-07T04:17:22.982Z,101820.22
2024-01-07T04:19:50.845Z,101822.53
2024-01-07T04:22:18.645Z,101829.56
2024-01-07T04:24:46.435Z,101829.06
2024-01-07T04:27:15.549Z,101835.88
2024-01-07T04:29:43.276Z,101837.22
2024-01-07T04:32:11.133Z,101842.22
2024-01-07T04:34:39.000Z,101847.38
2024-01-07T04:37:07.054Z,101846.88
2024-01-07T04:39:34.925Z,101838.38
2024-01-07T04:42:02.683Z,101841.88
2024-01-07T04:44:31.839Z,101846.72
2024-01-07T04:46:59.632Z,101851.91
2024-01-07T04:49:27.458Z,101851.56
2024-01-07T04:51:55.361Z,101858.22
2024-01-07T04:54:23.494Z,101866.88
2024-01-07T04:56:51.304Z,101868.84
2024-01-07T04:59:19.054Z,101870.00
2024-01-07T05:01:48.178Z,101870.84
2024-01-07T05:04:16.161Z,101867.38
2024-01-07T05:06:46.657Z,101872.88
2024-01-07T05:09:14.489Z,101867.53
2024-01-07T05:11:42.307Z,101874.34
2024-01-07T05:14:10.107Z,101869.19
2024-01-07T05:16:37.902Z,101876.50
2024-01-07T05:19:07.092Z,101883.31
2024-01-07T05:21:34.970Z,101880.31
2024-01-07T05:24:02.894Z,101881.16
2024-01-07T05:26:30.744Z,101891.31
2024-01-07T05:28:58.511Z,101880.63
2024-01-07T05:31:26.451Z,101889.81
2024-01-07T05:33:54.447Z,101895.16
2024-01-07T05:36:23.868Z,101907.34
2024-01-07T05:38:51.584Z,101901.81
2024-01-07T05:41:19.339Z,101913.81
2024-01-07T05:43:47.129Z,101913.47
2024-01-07T05:46:15.029Z,101926.31
2024-01-07T05:48:46.915Z,101916.16
2024-01-07T05:51:15.837Z,101922.63
2024-01-07T05:53:46.027Z,101919.28
2024-01-07T05:56:14.182Z,101928.59
2024-01-07T05:58:42.172Z,101922.13
2024-01-07T06:01:10.990Z,101929.28
2024-01-07T06:03:38.946Z,101926.81
2024-01-07T06:06:06.940Z,101940.16
2024-01-07T06:08:34.701Z,101946.91
2024-01-07T06:11:03.997Z,101941.59
2024-01-07T06:13:31.775Z,101944.66
2024-01-07T06:15:59.590Z,101947.69
2024-01-07T06:18:27.580Z,101950.69
2024-01-07T06:20:55.406Z,101952.69
2024-01-07T06:23:23.188Z,101954.16
2024-01-07T06:25:51.003Z,101955.50
2024-01-07T06:28:20.144Z,101968.19
2024-01-07T06:30:47.975Z,101976.22
2024-01-07T06:33:16.249Z,101969.72
2024-01-07T06:35:44.111Z,101975.06
2024-01-07T06:38:11.901Z,101968.31
2024-01-07T06:40:39.712Z,101985.63
2024-01-07T06:43:07.599Z,101992.97
2024-01-07T06:45:36.864Z,101991.41
2024-01-07T06:48:04.953Z,101992.38
2024-01-07T06:50:32.743Z,102004.34
2024-01-07T06:53:00.524Z,102007.66
2024-01-07T06:55:28.308Z,102011.94
2024-01-07T06:57:56.116Z,102017.63
2024-01-07T07:00:24.485Z,102021.66
2024-01-07T07:02:54.239Z,102034.16
2024-01-07T07:05:22.081Z,102027.78
2024-01-07T07:07:52.410Z,102025.78
2024-01-07T07:10:21.688Z,102017.72
2024-01-07T07:12:49.570Z,102016.56
2024-01-07T07:15:17.370Z,102034.59
2024-01-07T07:17:45.373Z,102038.59
2024-01-07T07:20:15.073Z,102035.25
2024-01-07T07:22:42.846Z,102035.25
2024-01-07T07:25:10.842Z,102045.78
2024-01-07T07:27:39.312Z,102054.44
2024-01-07T07:30:08.538Z,102056.22
2024-01-07T07:32:36.813Z,102065.69
2024-01-07T07:35:05.101Z,102063.03
2024-01-07T07:37:34.237Z,102067.34
2024-01-07T07:40:02.076Z,102071.03
2024-01-07T07:42:31.539Z,102079.53
2024-01-07T07:44:59.424Z,102084.50
2024-01-07T07:47:27.207Z,102091.31
2024-01-07T07:49:55.039Z,102097.81
2024-01-07T07:52:24.680Z,102102.75
2024-01-07T07:54:54.052Z,102101.72
2024-01-07T07:57:22.380Z,102109.84
2024-01-07T07:59:50.518Z,102111.00
2024-01-07T08:02:18.553Z,102115.78
2024-01-07T08:04:46.334Z,102119.44
2024-01-07T08:07:14.215Z,102112.22
2024-01-07T08:09:42.029Z,102108.88
2024-01-07T08:12:12.938Z,102118.22
2024-01-07T08:14:42.185Z,102128.19
2024-01-07T08:17:09.977Z,102127.13
2024-01-07T08:19:38.459Z,102117.94
2024-01-07T08:22:06.614Z,102130.09
2024-01-07T08:24:34.523Z,102133.16
2024-01-07T08:27:02.346Z,102132.00
2024-01-07T08:29:31.531Z,102146.69
2024-01-07T08:31:59.639Z,102147.06
2024-01-07T08:34:28.150Z,102144.13
2024-01-07T08:36:56.146Z,102147.66
2024-01-07T08:39:24.073Z,102152.63
2024-01-07T08:41:53.347Z,102154.94
2024-01-07T08:44:21.131Z,102153.16
2024-01-07T08:46:50.298Z,102159.19
2024-01-07T08:49:18.304Z,102161.91
2024-01-07T08:51:46.215Z,102160.66
2024-01-07T08:54:13.982Z,102170.34
2024-01-07T08:56:41.755Z,102168.56
2024-01-07T08:59:09.545Z,102176.63
2024-01-07T09:01:37.376Z,102181.44
2024-01-07T09:04:06.663Z,102189.56
2024-01-07T09:06:34.475Z,102190.97
2024-01-07T09:09:02.217Z,102185.41
2024-01-07T09:11:30.021Z,102190.59
2024-01-07T09:13:57.807Z,102193.72
2024-01-07T09:16:25.677Z,102195.69
2024-01-07T09:18:53.723Z,102204.97
2024-01-07T09:21:24.175Z,102201.03
2024-01-07T09:23:52.004Z,102207.50
2024-01-07T09:26:19.868Z,102207.19
2024-01-07T09:28:47.616Z,102212.38
2024-01-07T09:31:16.761Z,102217.13
2024-01-07T09:33:44.813Z,102218.28
2024-01-07T09:36:21.258Z,102227.97
2024-01-07T09:38:58.437Z,102239.69
2024-01-07T09:41:26.750Z,102240.00
2024-01-07T09:43:55.154Z,102242.28
2024-01-07T09:46:24.411Z,102246.25
2024-01-07T09:48:52.763Z,102253.19
2024-01-07T09:51:24.822Z,102248.25
2024-01-07T09:53:59.217Z,102253.66
2024-01-07T09:56:36.500Z,102249.06
2024-01-07T09:59:04.312Z,102258.22
2024-01-07T10:01:33.779Z,102259.66
2024-01-07T10:04:01.729Z,102267.44
2024-01-07T10:06:29.639Z,102261.25
2024-01-07T10:08:57.639Z,102264.53
2024-01-07T10:11:25.607Z,102260.31
2024-01-07T10:13:55.587Z,102273.41
2024-01-07T10:16:23.363Z,102271.03
2024-01-07T10:18:51.216Z,102282.16
2024-01-07T10:21:19.022Z,102282.63
2024-01-07T10:23:46.886Z,102279.38
2024-01-07T10:26:23.453Z,102286.31
2024-01-07T10:28:56.987Z,102287.59
2024-01-07T10:31:24.855Z,102287.97
2024-01-07T10:33:52.737Z,102294.56
2024-01-07T10:36:23.735Z,102283.06
2024-01-07T10:38:52.073Z,102289.41
2024-01-07T10:41:21.132Z,102292.16
2024-01-07T10:43:50.043Z,102283.47
2024-01-07T10:46:19.814Z,102290.09
2024-01-07T10:48:55.743Z,102296.97
2024-01-07T10:51:24.314Z,102287.97
2024-01-07T10:53:55.245Z,102300.19
2024-01-07T10:56:25.862Z,102298.81
2024-01-07T10:58:55.547Z,102305.44
2024-01-07T11:01:24.982Z,102303.44
2024-01-07T11:04:04.213Z,102305.81
2024-01-07T11:06:41.309Z,102293.72
2024-01-07T11:09:14.915Z,102304.66
2024-01-07T11:11:43.556Z,102301.91
2024-01-07T11:14:36.754Z,102307.00
2024-01-07T11:17:06.363Z,102303.06
2024-01-07T11:19:34.289Z,102303.75
2024-01-07T11:22:26.090Z,102289.94
2024-01-07T11:24:54.222Z,102301.75
2024-01-07T11:27:23.739Z,102299.75
2024-01-07T11:29:58.328Z,102310.19
2024-01-07T11:32:31.417Z,102314.22
2024-01-07T11:35:00.603Z,102309.47
2024-01-07T11:37:28.862Z,102310.75
2024-01-07T11:39:59.319Z,102317.16
2024-01-07T11:42:27.428Z,102312.28
2024-01-07T11:44:56.564Z,102313.03
2024-01-07T11:47:25.758Z,102311.41
2024-01-07T11:49:55.802Z,102307.59
2024-01-07T11:52:24.202Z,102305.59
2024-01-07T11:54:52.273Z,102302.09
2024-01-07T11:57:20.183Z,102302.34
2024-01-07T11:59:48.673Z,102300.66
2024-01-07T12:02:18.336Z,102304.13
2024-01-07T12:04:46.194Z,102301.78
2024-01-07T12:07:15.779Z,102300.31
2024-01-07T12:09:43.916Z,102306.41
2024-01-07T12:12:11.829Z,102311.28
2024-01-07T12:14:39.737Z,102318.53
2024-01-07T12:17:08.610Z,102307.19
2024-01-07T12:19:37.895Z,102306.94
2024-01-07T12:22:08.092Z,102323.31
2024-01-07T12:24:37.330Z,102323.09
2024-01-07T12:27:08.906Z,102334.03
2024-01-07T12:29:36.703Z,102332.28
2024-01-07T12:32:04.605Z,102324.78
2024-01-07T12:34:32.883Z,102323.06
2024-01-07T12:37:03.285Z,102325.66
2024-01-07T12:39:31.333Z,102336.91
2024-01-07T12:42:00.500Z,102334.25
2024-01-07T12:44:30.006Z,102341.00
2024-01-07T12:46:57.849Z,102336.72
2024-01-07T12:49:25.770Z,102343.88
2024-01-07T12:51:53.649Z,102334.94
2024-01-07T12:54:22.797Z,102330.19
2024-01-07T12:56:50.512Z,102338.69
2024-01-07T12:59:19.861Z,102343.97
2024-01-07T13:01:47.873Z,102351.38
2024-01-07T13:04:15.943Z,102355.47
2024-01-07T13:06:44.035Z,102357.09
2024-01-07T13:09:11.936Z,102354.81
2024-01-07T13:11:40.447Z,102359.72
2024-01-07T13:14:08.557Z,102356.31
2024-01-07T13:16:37.826Z,102352.94
2024-01-07T13:19:06.352Z,102359.44
2024-01-07T13:21:37.554Z,102356.38
2024-01-07T13:24:07.785Z,102362.56
2024-01-07T13:26:35.622Z,102370.56
2024-01-07T13:29:04.796Z,102368.00
2024-01-07T13:31:33.559Z,102372.66
2024-01-07T13:34:03.062Z,102377.69
2024-01-07T13:36:31.113Z,102374.91
2024-01-07T13:38:58.934Z,102382.00
2024-01-07T13:41:29.841Z,102382.91
2024-01-07T13:43:58.586Z,102388.88
2024-01-07T13:46:27.881Z,102380.53
2024-01-07T13:48:56.550Z,102388.44
2024-01-07T13:51:27.055Z,102392.16
2024-01-07T13:53:54.838Z,102402.03
2024-01-07T13:56:22.652Z,102398.16
2024-01-07T13:58:51.189Z,102419.41
2024-01-07T14:01:19.154Z,102414.00
2024-01-07T14:03:47.074Z,102414.00
2024-01-07T14:06:15.032Z,102408.34
2024-01-07T14:08:44.197Z,102409.06
2024-01-07T14:11:11.982Z,102414.56
2024-01-07T14:13:39.915Z,102418.44
2024-01-07T14:16:08.733Z,102421.91
2024-01-07T14:18:36.581Z,102417.94
2024-01-07T14:21:04.756Z,102422.47
2024-01-07T14:23:33.306Z,102429.09
2024-01-07T14:26:02.537Z,102428.38
2024-01-07T14:28:30.295Z,102440.81
2024-01-07T14:30:59.161Z,102444.06
2024-01-07T14:33:27.252Z,102448.66
2024-01-07T14:35:55.212Z,102446.69
2024-01-07T14:38:23.098Z,102458.56
2024-01-07T14:40:52.992Z,102459.00
2024-01-07T14:43:22.202Z,102469.72
2024-01-07T14:45:50.122Z,102487.81
2024-01-07T14:48:18.104Z,102471.94
2024-01-07T14:50:49.054Z,102477.13
2024-01-07T14:53:17.462Z,102477.69
2024-01-07T14:55:45.230Z,102479.94
2024-01-07T14:58:13.225Z,102484.44
2024-01-07T15:00:42.529Z,102497.28
2024-01-07T15:03:10.481Z,102493.84
2024-01-07T15:05:38.392Z,102490.25
2024-01-07T15:08:06.411Z,102506.31
2024-01-07T15:10:34.651Z,102523.53
2024-01-07T15:13:07.337Z,102508.91
2024-01-07T15:15:44.073Z,102506.75
2024-01-07T15:18:13.151Z,102505.75
2024-01-07T15:20:41.044Z,102506.50
2024-01-07T15:23:08.818Z,102520.88
2024-01-07T15:25:36.660Z,102534.88
2024-01-07T15:28:04.954Z,102531.66
2024-01-07T15:30:33.025Z,102532.28
2024-01-07T15:33:02.354Z,102544.31
2024-01-07T15:35:30.244Z,102544.84
2024-01-07T15:37:58.738Z,102547.44
2024-01-07T15:40:27.990Z,102553.28
2024-01-07T15:42:55.944Z,102561.44
2024-01-07T15:45:23.777Z,102556.25
2024-01-07T15:47:51.656Z,102559.53
2024-01-07T15:50:20.921Z,102565.47
2024-01-07T15:52:50.537Z,102565.56
2024-01-07T15:55:19.555Z,102570.25
2024-01-07T15:57:47.526Z,102572.75
2024-01-07T16:00:16.201Z,102566.75
2024-01-07T16:02:44.003Z,102574.69
2024-01-07T16:05:11.999Z,102563.53
2024-01-07T16:07:41.262Z,102585.16
2024-01-07T16:10:09.709Z,102576.34
2024-01-07T16:12:37.908Z,102579.97
2024-01-07T16:15:07.029Z,102585.84
2024-01-07T16:17:34.844Z,102591.28
2024-01-07T16:20:02.791Z,102597.47
2024-01-07T16:22:31.500Z,102600.69
2024-01-07T16:25:00.682Z,102595.63
2024-01-07T16:27:29.758Z,102605.06
2024-01-07T16:29:58.169Z,102616.41
2024-01-07T16:32:27.295Z,102609.38
2024-01-07T16:34:58.181Z,102620.06
2024-01-07T16:37:26.116Z,102625.28
2024-01-07T16:39:54.011Z,102616.84
2024-01-07T16:42:23.172Z,102622.03
2024-01-07T16:44:51.518Z,102622.03
2024-01-07T16:47:19.318Z,102631.84
2024-01-07T16:52:17.841Z,102643.38
2024-01-07T16:54:47.686Z,102652.75
2024-01-07T16:57:15.782Z,102651.13
2024-01-07T16:59:45.826Z,102650.97
2024-01-07T17:02:13.649Z,102659.16
2024-01-07T17:04:41.572Z,102658.41
2024-01-07T17:07:09.596Z,102661.13
2024-01-07T17:09:37.366Z,102665.34
2024-01-07T17:12:06.100Z,102662.94
2024-01-07T17:14:36.576Z,102666.03
2024-01-07T17:17:06.064Z,102667.47
2024-01-07T17:19:34.138Z,102671.81
2024-01-07T17:22:01.938Z,102676.59
2024-01-07T17:24:30.461Z,102683.31
2024-01-07T17:26:59.863Z,102679.13
2024-01-07T17:29:31.600Z,102685.03
2024-01-07T17:31:59.452Z,102680.53
2024-01-07T17:34:28.745Z,102693.44
2024-01-07T17:36:56.537Z,102697.91
2024-01-07T17:39:24.384Z,102700.44
2024-01-07T17:41:52.357Z,102688.38
2024-01-07T17:44:20.312Z,102701.56
2024-01-07T17:46:48.155Z,102709.72
2024-01-07T17:49:16.030Z,102702.69
2024-01-07T17:51:46.001Z,102709.03
2024-01-07T17:54:14.040Z,102702.16
2024-01-07T17:56:44.372Z,102714.34
2024-01-07T17:59:13.144Z,102710.00
2024-01-07T18:01:41.130Z,102708.31
2024-01-07T18:04:08.945Z,102714.34
2024-01-07T18:06:36.717Z,102718.16
2024-01-07T18:09:06.701Z,102722.78
2024-01-07T18:11:35.074Z,102725.16
2024-01-07T18:14:03.002Z,102728.09
2024-01-07T18:16:30.958Z,102730.91
2024-01-07T18:18:58.795Z,102730.34
2024-01-07T18:21:30.968Z,102729.25
2024-01-07T18:23:58.885Z,102742.28
2024-01-07T18:26:29.309Z,102741.47
2024-01-07T18:28:57.213Z,102739.94
2024-01-07T18:31:25.844Z,102737.53
2024-01-07T18:33:53.875Z,102747.38
2024-01-07T18:36:23.368Z,102744.69
2024-01-07T18:38:50.202Z,102749.59
2024-01-07T18:41:23.639Z,102754.91
2024-01-07T18:43:53.925Z,102758.00
2024-01-07T18:46:21.745Z,102761.22
2024-01-07T18:48:49.813Z,102760.50
2024-01-07T18:51:17.622Z,102765.69
2024-01-07T18:53:45.386Z,102769.44
2024-01-07T18:56:13.334Z,102769.31
2024-01-07T18:58:41.200Z,102766.22
2024-01-07T19:01:10.367Z,102769.88
2024-01-07T19:03:38.199Z,102778.16
2024-01-07T19:06:06.324Z,102780.69
2024-01-07T19:08:34.295Z,102780.16
2024-01-07T19:11:04.586Z,102788.56
2024-01-07T19:13:34.040Z,102781.97
2024-01-07T19:16:01.996Z,102789.44
2024-01-07T19:18:33.940Z,102795.75
2024-01-07T19:21:01.779Z,102803.31
2024-01-07T19:23:29.693Z,102797.84
2024-01-07T19:25:57.524Z,102807.25
2024-01-07T19:28:25.295Z,102809.91
2024-01-07T19:30:54.561Z,102803.59
2024-01-07T19:33:22.912Z,102813.69
2024-01-07T19:35:53.458Z,102805.13
2024-01-07T19:38:21.382Z,102808.78
2024-01-07T19:40:49.830Z,102803.34
2024-01-07T19:43:17.781Z,102814.97
2024-01-07T19:45:46.616Z,102807.22
2024-01-07T19:48:14.635Z,102802.44
2024-01-07T19:50:46.477Z,102814.69
2024-01-07T19:53:23.958Z,102807.25
2024-01-07T19:55:59.866Z,102794.63
2024-01-07T19:58:28.023Z,102820.72
2024-01-07T20:00:55.803Z,102812.28
2024-01-07T20:03:25.655Z,102804.88
2024-01-07T20:05:53.842Z,102815.94
2024-01-07T20:08:24.265Z,102818.44
2024-01-07T20:10:53.769Z,102813.69
2024-01-07T20:13:23.695Z,102817.31
2024-01-07T20:15:51.694Z,102817.84
2024-01-07T20:18:19.714Z,102821.66
2024-01-07T20:20:48.049Z,102828.25
2024-01-07T20:23:15.862Z,102823.06
2024-01-07T20:25:47.458Z,102831.06
2024-01-07T20:28:15.444Z,102830.78
2024-01-07T20:30:43.686Z,102833.03
2024-01-07T20:33:13.276Z,102827.69
2024-01-07T20:35:41.588Z,102834.09
2024-01-07T20:38:10.208Z,102844.22
2024-01-07T20:40:38.519Z,102832.13
2024-01-07T20:43:11.225Z,102839.72
2024-01-07T20:45:40.016Z,102836.09
2024-01-07T20:48:08.632Z,102844.47
2024-01-07T20:50:38.650Z,102842.66
2024-01-07T20:53:06.851Z,102841.09
2024-01-07T20:55:34.630Z,102843.50
2024-01-07T20:58:03.975Z,102850.38
2024-01-07T21:00:33.531Z,102847.59
2024-01-07T21:03:01.731Z,102844.06
2024-01-07T21:05:29.834Z,102845.06
2024-01-07T21:07:57.873Z,102848.84
2024-01-07T21:10:25.723Z,102845.03
2024-01-07T21:12:54.948Z,102847.41
2024-01-07T21:15:23.941Z,102842.50
2024-01-07T21:17:53.315Z,102846.56
2024-01-07T21:20:21.294Z,102849.22
2024-01-07T21:22:49.198Z,102843.19
2024-01-07T21:25:17.664Z,102839.25
2024-01-07T21:27:45.726Z,102836.91
2024-01-07T21:30:14.414Z,102837.59
2024-01-07T21:32:42.918Z,102843.91
2024-01-07T21:35:12.621Z,102842.34
2024-01-07T21:37:40.468Z,102845.28
2024-01-07T21:40:09.324Z,102843.28
2024-01-07T21:42:38.401Z,102844.97
2024-01-07T21:45:06.922Z,102839.38
2024-01-07T21:47:34.825Z,102842.06
2024-01-07T21:50:03.043Z,102834.06
2024-01-07T21:52:32.642Z,102845.97
2024-01-07T21:55:00.568Z,102850.72
2024-01-07T21:57:28.612Z,102844.13
2024-01-07T21:59:56.402Z,102847.66
2024-01-07T22:02:24.255Z,102841.03
2024-01-07T22:04:52.246Z,102848.50
2024-01-07T22:07:21.859Z,102843.16
2024-01-07T22:09:50.990Z,102843.88
2024-01-07T22:12:18.798Z,102845.69
2024-01-07T22:14:46.577Z,102848.75
2024-01-07T22:17:14.395Z,102853.25
2024-01-07T22:19:42.214Z,102859.97
2024-01-07T22:22:10.227Z,102855.50
2024-01-07T22:24:38.022Z,102865.53
2024-01-07T22:27:07.346Z,102872.94
2024-01-07T22:29:35.140Z,102865.75
2024-01-07T22:32:04.202Z,102869.97
2024-01-07T22:34:32.207Z,102870.81
2024-01-07T22:37:00.035Z,102869.44
2024-01-07T22:39:29.109Z,102878.78
2024-01-07T22:41:56.970Z,102873.34
2024-01-07T22:44:26.190Z,102879.38
2024-01-07T22:46:54.073Z,102882.03
2024-01-07T22:49:22.647Z,102890.53
2024-01-07T22:51:50.906Z,102886.31
2024-01-07T22:54:18.745Z,102882.19
2024-01-07T22:56:47.277Z,102877.13
2024-01-07T22:59:16.181Z,102880.75
2024-01-07T23:01:45.476Z,102879.25
2024-01-07T23:04:13.479Z,102886.84
2024-01-07T23:06:41.588Z,102883.22
2024-01-07T23:09:12.029Z,102887.91
2024-01-07T23:11:40.105Z,102893.66
2024-01-07T23:14:08.022Z,102910.53
2024-01-07T23:16:35.896Z,102904.50
2024-01-07T23:19:05.740Z,102905.78
2024-01-07T23:21:33.653Z,102893.13
2024-01-07T23:24:02.327Z,102894.44
2024-01-07T23:26:30.495Z,102898.78
2024-01-07T23:28:58.369Z,102907.59
2024-01-07T23:31:26.331Z,102908.97
2024-01-07T23:33:54.307Z,102903.19
2024-01-07T23:36:23.527Z,102913.69
2024-01-07T23:38:51.438Z,102913.44
2024-01-07T23:41:19.268Z,102900.06
2024-01-07T23:43:47.106Z,102911.53
2024-01-07T23:46:14.916Z,102904.66
2024-01-07T23:48:42.778Z,102917.97
2024-01-07T23:51:10.630Z,102921.34
2024-01-07T23:53:39.804Z,102916.88
2024-01-07T23:56:07.991Z,102910.50
2024-01-07T23:58:35.783Z,102917.03
